Forside
METAR-TAF:

METAR-TAF

Lufthavne :

Šiauliai International Airport

Šiauliai, Litauen

Breddekreds: 55-53-38N, længdekreds: 023-23-42E, højde: 135 m

Aktuelle vejr

Denne rapport blev lavet for 34 minutter siden, kl. 23:20 UTC
Vind 10 kt fra sydvest
Temperatur 9°C
Fugtighed 100%
Tryk 1017 hPa
Sigt: 6000 m
Brudte skyer i en højde af 400 ft
Overskyet i en højde af 1100 ft
let regn,

METAR: EYSA 122320Z AUTO 23010KT 6000NDV -RA BKN004 OVC011 09/09 Q1017

Tid: 02:54 (23:54 UTC)

Vejrudsigter

Denne rapport blev lavet for 43 minutter siden, kl. 23:11 UTC
Foreløbig gælder fra 13 på 00 UTC til 13 på 09 UTC
Vind 12 kt fra sydvest
Sigt: 5000 m
Brudte skyer i en højde af 500 ft
Overskyet i en højde af 1000 ft
regn, dis
Midlertidig
fra 13 på 03 UTC til 13 på 06 UTC
Sigt: 0600 m
Overskyet i en højde af 200 ft
finregn, tåge
ændring
fra 13 på 06 UTC til 13 på 08 UTC
Vind 12 kt fra vest
Sigt: 9000 m

TAF: EYSA 122311Z 1300/1309 22012KT 5000 RA BR BKN005 OVC010 TEMPO 1303/1306 0600 DZ FG OVC002 BECMG 1306/1308 28012KT 9000 NSW

Vejrobservationer og prognoser fra mere end 4000 lufthavne (METAR og TAF).

De gule og røde prikker repræsenterer de meteorologiske stationer.

Flyt musen over at se navnet på stationen.

Så klik over at se vejr observationer og prognoser.

At skifte det kort: Klik på de grønne knapper med et sort kors for at zoome ind; på den grønne knap med en bindestreg for at zoome ud; eller på de grønne pile for tilstødende kort.


METAR-TAF: